Terminal Aerodrome Forecast
Issued by NWS

Home | Current Version | Previous Version | Text Only | Print | Product List | Glossary On
Versions: 1 2 3 4 5 6 7 8 9 10 11 12 13 14
000
FTAK31 PAJN 250500
TAFAWG
TAF
PAWG 250528Z 2506/2606 00000KT P6SM -SHRA FEW035 BKN040 OVC060
     FM251400 11005KT 6SM -RA BR SCT020 BKN040 OVC060
     FM252300 12009KT 5SM -RA BR FEW015 OVC025
      AMD LTD TO CLD VIS AND WIND 2506/2515=

USA.gov is the U.S. government's official web portal to all federal, state and local government web resources and services.